<?xml version="1.0" encoding="UTF-8"?><gpx xmlns="http://www.topografix.com/GPX/1/1" version="1.1" creator="iOrient"><trk><name>Квест "Код города"</name><trkseg><trkpt lat="56.8353710" lon="53.1268538"><time>2024-11-09T10:46:11.733</time></trkpt><trkpt lat="56.8353923" lon="53.1270185"><time>2024-11-09T10:46:13.560</time></trkpt><trkpt lat="56.8353653" lon="53.1269349"><time>2024-11-09T10:46:14.777</time></trkpt><trkpt lat="56.8345469" lon="53.1292146"><time>2024-11-09T10:47:45.780</time></trkpt><trkpt lat="56.8346400" lon="53.1293194"><time>2024-11-09T10:47:46.773</time></trkpt><trkpt lat="56.8344462" lon="53.1294620"><time>2024-11-09T10:47:54.777</time></trkpt><trkpt lat="56.8344216" lon="53.1296129"><time>2024-11-09T10:47:59.733</time></trkpt><trkpt lat="56.8341651" lon="53.1294439"><time>2024-11-09T10:48:01.787</time></trkpt><trkpt lat="56.8342785" lon="53.1294041"><time>2024-11-09T10:48:02.703</time></trkpt><trkpt lat="56.8343430" lon="53.1293988"><time>2024-11-09T10:48:04.727</time></trkpt><trkpt lat="56.8344014" lon="53.1293745"><time>2024-11-09T10:48:09.707</time></trkpt><trkpt lat="56.8344519" lon="53.1293746"><time>2024-11-09T10:48:13.710</time></trkpt><trkpt lat="56.8344522" lon="53.1293773"><time>2024-11-09T10:48:15.200</time></trkpt><trkpt lat="56.8313975" lon="53.1308984"><time>2024-11-09T10:51:49.220</time></trkpt><trkpt lat="56.8313176" lon="53.1307172"><time>2024-11-09T10:51:50.933</time></trkpt><trkpt lat="56.8313036" lon="53.1309994"><time>2024-11-09T10:51:52.690</time></trkpt><trkpt lat="56.8313149" lon="53.1309148"><time>2024-11-09T10:51:53.700</time></trkpt><trkpt lat="56.8312884" lon="53.1308253"><time>2024-11-09T10:51:55.687</time></trkpt><trkpt lat="56.8312370" lon="53.1308188"><time>2024-11-09T10:51:57.680</time></trkpt><trkpt lat="56.8311953" lon="53.1307850"><time>2024-11-09T10:51:59.717</time></trkpt><trkpt lat="56.8311088" lon="53.1305871"><time>2024-11-09T10:52:01.393</time></trkpt><trkpt lat="56.8311577" lon="53.1309382"><time>2024-11-09T10:52:02.683</time></trkpt><trkpt lat="56.8310912" lon="53.1309513"><time>2024-11-09T10:52:03.697</time></trkpt><trkpt lat="56.8310758" lon="53.1308437"><time>2024-11-09T10:52:05.703</time></trkpt><trkpt lat="56.8310267" lon="53.1308236"><time>2024-11-09T10:52:07.697</time></trkpt><trkpt lat="56.8309776" lon="53.1308524"><time>2024-11-09T10:52:09.683</time></trkpt><trkpt lat="56.8309275" lon="53.1308956"><time>2024-11-09T10:52:11.690</time></trkpt><trkpt lat="56.8309027" lon="53.1308229"><time>2024-11-09T10:52:16.707</time></trkpt><trkpt lat="56.8309090" lon="53.1308196"><time>2024-11-09T10:52:25.127</time></trkpt><trkpt lat="56.8263582" lon="53.1313014"><time>2024-11-09T10:57:21.703</time></trkpt><trkpt lat="56.8261757" lon="53.1314361"><time>2024-11-09T10:57:30.667</time></trkpt><trkpt lat="56.8262325" lon="53.1314277"><time>2024-11-09T10:57:31.297</time></trkpt><trkpt lat="56.8254275" lon="53.1319816"><time>2024-11-09T10:58:49.700</time></trkpt><trkpt lat="56.8255084" lon="53.1317139"><time>2024-11-09T10:58:54.683</time></trkpt><trkpt lat="56.8255039" lon="53.1318256"><time>2024-11-09T10:58:55.213</time></trkpt><trkpt lat="56.8253587" lon="53.1318495"><time>2024-11-09T10:58:56.680</time></trkpt><trkpt lat="56.8253288" lon="53.1319111"><time>2024-11-09T10:58:58.680</time></trkpt><trkpt lat="56.8253065" lon="53.1319378"><time>2024-11-09T10:59:03.053</time></trkpt><trkpt lat="56.8225372" lon="53.1344627"><time>2024-11-09T11:07:51.677</time></trkpt><trkpt lat="56.8227213" lon="53.1347715"><time>2024-11-09T11:07:52.710</time></trkpt><trkpt lat="56.8221228" lon="53.1344411"><time>2024-11-09T11:07:57.697</time></trkpt><trkpt lat="56.8225910" lon="53.1346342"><time>2024-11-09T11:08:03.630</time></trkpt><trkpt lat="56.8225153" lon="53.1345894"><time>2024-11-09T11:08:04.667</time></trkpt><trkpt lat="56.8223851" lon="53.1346552"><time>2024-11-09T11:08:05.683</time></trkpt><trkpt lat="56.8225285" lon="53.1346447"><time>2024-11-09T11:08:06.687</time></trkpt><trkpt lat="56.8221419" lon="53.1347307"><time>2024-11-09T11:08:07.190</time></trkpt><trkpt lat="56.8222069" lon="53.1346721"><time>2024-11-09T11:08:10.703</time></trkpt><trkpt lat="56.8222490" lon="53.1346414"><time>2024-11-09T11:08:17.683</time></trkpt><trkpt lat="56.8223045" lon="53.1346351"><time>2024-11-09T11:08:24.690</time></trkpt><trkpt lat="56.8223487" lon="53.1346235"><time>2024-11-09T11:08:33.347</time></trkpt><trkpt lat="56.8223546" lon="53.1346263"><time>2024-11-09T11:08:33.930</time></trkpt><trkpt lat="56.8223132" lon="53.1345542"><time>2024-11-09T11:08:35.993</time></trkpt><trkpt lat="56.8222361" lon="53.1344022"><time>2024-11-09T11:08:36.710</time></trkpt><trkpt lat="56.8201991" lon="53.1389103"><time>2024-11-09T11:13:22.723</time></trkpt><trkpt lat="56.8205226" lon="53.1390962"><time>2024-11-09T11:13:26.707</time></trkpt><trkpt lat="56.8203883" lon="53.1390839"><time>2024-11-09T11:13:27.700</time></trkpt><trkpt lat="56.8203871" lon="53.1392926"><time>2024-11-09T11:13:28.717</time></trkpt><trkpt lat="56.8203206" lon="53.1394106"><time>2024-11-09T11:13:29.700</time></trkpt><trkpt lat="56.8204170" lon="53.1394572"><time>2024-11-09T11:13:30.683</time></trkpt><trkpt lat="56.8205077" lon="53.1393990"><time>2024-11-09T11:13:32.700</time></trkpt><trkpt lat="56.8205321" lon="53.1394547"><time>2024-11-09T11:13:35.283</time></trkpt><trkpt lat="56.8231702" lon="53.1395079"><time>2024-11-09T11:17:31.177</time></trkpt><trkpt lat="56.8232517" lon="53.1396164"><time>2024-11-09T11:17:32.657</time></trkpt><trkpt lat="56.8233225" lon="53.1395853"><time>2024-11-09T11:17:34.647</time></trkpt><trkpt lat="56.8233690" lon="53.1395535"><time>2024-11-09T11:17:37.670</time></trkpt><trkpt lat="56.8234163" lon="53.1395396"><time>2024-11-09T11:17:38.667</time></trkpt><trkpt lat="56.8234495" lon="53.1394720"><time>2024-11-09T11:17:41.707</time></trkpt><trkpt lat="56.8234495" lon="53.1394720"><time>2024-11-09T11:17:42.107</time></trkpt><trkpt lat="56.8274542" lon="53.1367058"><time>2024-11-09T11:22:52.663</time></trkpt><trkpt lat="56.8276372" lon="53.1368281"><time>2024-11-09T11:22:53.680</time></trkpt><trkpt lat="56.8277164" lon="53.1366793"><time>2024-11-09T11:22:54.647</time></trkpt><trkpt lat="56.8277293" lon="53.1367929"><time>2024-11-09T11:22:55.177</time></trkpt><trkpt lat="56.8277740" lon="53.1368137"><time>2024-11-09T11:23:00.673</time></trkpt><trkpt lat="56.8278212" lon="53.1367720"><time>2024-11-09T11:23:05.677</time></trkpt><trkpt lat="56.8278686" lon="53.1367224"><time>2024-11-09T11:23:09.693</time></trkpt><trkpt lat="56.8278688" lon="53.1365981"><time>2024-11-09T11:23:11.680</time></trkpt><trkpt lat="56.8278612" lon="53.1364998"><time>2024-11-09T11:23:13.677</time></trkpt><trkpt lat="56.8278546" lon="53.1364691"><time>2024-11-09T11:23:15.607</time></trkpt><trkpt lat="56.8278446" lon="53.1364208"><time>2024-11-09T11:23:16.793</time></trkpt><trkpt lat="56.8279443" lon="53.1364120"><time>2024-11-09T11:23:18.557</time></trkpt><trkpt lat="56.8276023" lon="53.1403268"><time>2024-11-09T11:25:50.693</time></trkpt><trkpt lat="56.8276946" lon="53.1406207"><time>2024-11-09T11:25:53.720</time></trkpt><trkpt lat="56.8276504" lon="53.1406813"><time>2024-11-09T11:25:57.700</time></trkpt><trkpt lat="56.8277244" lon="53.1409580"><time>2024-11-09T11:26:05.047</time></trkpt><trkpt lat="56.8277671" lon="53.1409872"><time>2024-11-09T11:26:06.693</time></trkpt><trkpt lat="56.8277486" lon="53.1410751"><time>2024-11-09T11:26:11.677</time></trkpt><trkpt lat="56.8277501" lon="53.1411634"><time>2024-11-09T11:26:14.680</time></trkpt><trkpt lat="56.8277527" lon="53.1412555"><time>2024-11-09T11:26:17.673</time></trkpt><trkpt lat="56.8277623" lon="53.1413646"><time>2024-11-09T11:26:20.703</time></trkpt><trkpt lat="56.8277614" lon="53.1414588"><time>2024-11-09T11:26:22.697</time></trkpt><trkpt lat="56.8277051" lon="53.1415047"><time>2024-11-09T11:26:24.677</time></trkpt><trkpt lat="56.8276523" lon="53.1415428"><time>2024-11-09T11:26:26.683</time></trkpt><trkpt lat="56.8276291" lon="53.1415674"><time>2024-11-09T11:26:28.240</time></trkpt><trkpt lat="56.8279769" lon="53.1484849"><time>2024-11-09T11:31:00.657</time></trkpt><trkpt lat="56.8281065" lon="53.1481057"><time>2024-11-09T11:31:01.147</time></trkpt><trkpt lat="56.8281569" lon="53.1481160"><time>2024-11-09T11:31:02.647</time></trkpt><trkpt lat="56.8282229" lon="53.1481532"><time>2024-11-09T11:31:05.670</time></trkpt><trkpt lat="56.8282872" lon="53.1481494"><time>2024-11-09T11:31:07.703</time></trkpt><trkpt lat="56.8283369" lon="53.1481637"><time>2024-11-09T11:31:09.670</time></trkpt><trkpt lat="56.8283861" lon="53.1481716"><time>2024-11-09T11:31:11.673</time></trkpt><trkpt lat="56.8283798" lon="53.1481496"><time>2024-11-09T11:31:15.093</time></trkpt><trkpt lat="56.8314609" lon="53.1505978"><time>2024-11-09T11:35:35.653</time></trkpt><trkpt lat="56.8313999" lon="53.1506812"><time>2024-11-09T11:35:36.643</time></trkpt><trkpt lat="56.8313952" lon="53.1505716"><time>2024-11-09T11:35:37.647</time></trkpt><trkpt lat="56.8315360" lon="53.1505621"><time>2024-11-09T11:35:38.643</time></trkpt><trkpt lat="56.8314942" lon="53.1504384"><time>2024-11-09T11:35:39.650</time></trkpt><trkpt lat="56.8315604" lon="53.1507441"><time>2024-11-09T11:35:40.630</time></trkpt><trkpt lat="56.8314805" lon="53.1506452"><time>2024-11-09T11:35:41.630</time></trkpt><trkpt lat="56.8314235" lon="53.1507595"><time>2024-11-09T11:35:42.640</time></trkpt><trkpt lat="56.8314927" lon="53.1506475"><time>2024-11-09T11:35:42.940</time></trkpt><trkpt lat="56.8314794" lon="53.1505378"><time>2024-11-09T11:35:44.657</time></trkpt><trkpt lat="56.8314828" lon="53.1504508"><time>2024-11-09T11:35:51.660</time></trkpt><trkpt lat="56.8316465" lon="53.1504716"><time>2024-11-09T11:36:02.667</time></trkpt><trkpt lat="56.8317335" lon="53.1504467"><time>2024-11-09T11:36:03.663</time></trkpt><trkpt lat="56.8317137" lon="53.1503562"><time>2024-11-09T11:36:04.670</time></trkpt><trkpt lat="56.8317018" lon="53.1503002"><time>2024-11-09T11:36:10.640</time></trkpt><trkpt lat="56.8336305" lon="53.1534647"><time>2024-11-09T11:39:13.673</time></trkpt><trkpt lat="56.8335852" lon="53.1533469"><time>2024-11-09T11:39:15.680</time></trkpt><trkpt lat="56.8335289" lon="53.1533737"><time>2024-11-09T11:39:16.680</time></trkpt><trkpt lat="56.8335874" lon="53.1534451"><time>2024-11-09T11:39:17.680</time></trkpt><trkpt lat="56.8335871" lon="53.1533671"><time>2024-11-09T11:39:20.420</time></trkpt><trkpt lat="56.8335805" lon="53.1534145"><time>2024-11-09T11:47:50.767</time></trkpt><trkpt lat="56.8331391" lon="53.1435550"><time>2024-11-09T11:47:52.677</time></trkpt><trkpt lat="56.8316029" lon="53.1399278"><time>2024-11-09T11:50:51.707</time></trkpt><trkpt lat="56.8315910" lon="53.1402097"><time>2024-11-09T11:50:54.683</time></trkpt><trkpt lat="56.8315440" lon="53.1401238"><time>2024-11-09T11:50:55.193</time></trkpt><trkpt lat="56.8308425" lon="53.1389637"><time>2024-11-09T11:51:37.673</time></trkpt><trkpt lat="56.8309868" lon="53.1390100"><time>2024-11-09T11:51:42.350</time></trkpt><trkpt lat="56.8309868" lon="53.1390100"><time>2024-11-09T11:51:43.403</time></trkpt><trkpt lat="56.8309900" lon="53.1392170"><time>2024-11-09T11:51:43.997</time></trkpt><trkpt lat="56.8310691" lon="53.1390939"><time>2024-11-09T11:51:45.823</time></trkpt><trkpt lat="56.8310360" lon="53.1392107"><time>2024-11-09T11:51:46.670</time></trkpt><trkpt lat="56.8356392" lon="53.1377259"><time>2024-11-09T11:56:41.733</time></trkpt><trkpt lat="56.8354226" lon="53.1375432"><time>2024-11-09T11:56:44.643</time></trkpt><trkpt lat="56.8356139" lon="53.1374344"><time>2024-11-09T11:56:45.750</time></trkpt><trkpt lat="56.8356284" lon="53.1377073"><time>2024-11-09T11:56:46.677</time></trkpt><trkpt lat="56.8355419" lon="53.1376357"><time>2024-11-09T11:56:47.670</time></trkpt><trkpt lat="56.8356388" lon="53.1376198"><time>2024-11-09T11:56:48.653</time></trkpt><trkpt lat="56.8355583" lon="53.1374652"><time>2024-11-09T11:56:48.963</time></trkpt><trkpt lat="56.8355502" lon="53.1375114"><time>2024-11-09T11:56:50.753</time></trkpt><trkpt lat="56.8382166" lon="53.1399261"><time>2024-11-09T11:59:54.673</time></trkpt><trkpt lat="56.8381380" lon="53.1406622"><time>2024-11-09T12:00:32.657</time></trkpt><trkpt lat="56.8380107" lon="53.1407479"><time>2024-11-09T12:00:33.640</time></trkpt><trkpt lat="56.8382371" lon="53.1409643"><time>2024-11-09T12:00:34.687</time></trkpt><trkpt lat="56.8381672" lon="53.1409070"><time>2024-11-09T12:00:35.663</time></trkpt><trkpt lat="56.8382839" lon="53.1410411"><time>2024-11-09T12:00:36.683</time></trkpt><trkpt lat="56.8382203" lon="53.1409730"><time>2024-11-09T12:00:37.190</time></trkpt><trkpt lat="56.8381555" lon="53.1409997"><time>2024-11-09T12:00:38.667</time></trkpt><trkpt lat="56.8376064" lon="53.1429784"><time>2024-11-09T12:01:09.480</time></trkpt><trkpt lat="56.8382023" lon="53.1422496"><time>2024-11-09T12:01:13.797</time></trkpt><trkpt lat="56.8382863" lon="53.1422720"><time>2024-11-09T12:01:15.623</time></trkpt><trkpt lat="56.8382457" lon="53.1423114"><time>2024-11-09T12:01:17.697</time></trkpt><trkpt lat="56.8382082" lon="53.1423618"><time>2024-11-09T12:01:18.673</time></trkpt><trkpt lat="56.8381163" lon="53.1424199"><time>2024-11-09T12:01:21.680</time></trkpt><trkpt lat="56.8381615" lon="53.1424852"><time>2024-11-09T12:01:22.680</time></trkpt><trkpt lat="56.8380768" lon="53.1424919"><time>2024-11-09T12:01:23.697</time></trkpt><trkpt lat="56.8379991" lon="53.1425683"><time>2024-11-09T12:01:24.437</time></trkpt><trkpt lat="56.8380716" lon="53.1426446"><time>2024-11-09T12:01:25.440</time></trkpt><trkpt lat="56.8381468" lon="53.1426434"><time>2024-11-09T12:01:26.667</time></trkpt><trkpt lat="56.8381960" lon="53.1426000"><time>2024-11-09T12:01:27.690</time></trkpt><trkpt lat="56.8381343" lon="53.1426635"><time>2024-11-09T12:01:29.397</time></trkpt><trkpt lat="56.8380749" lon="53.1427632"><time>2024-11-09T12:01:31.093</time></trkpt><trkpt lat="56.8381220" lon="53.1427127"><time>2024-11-09T12:01:31.657</time></trkpt><trkpt lat="56.8381680" lon="53.1427754"><time>2024-11-09T12:01:32.670</time></trkpt><trkpt lat="56.8380998" lon="53.1428144"><time>2024-11-09T12:01:34.667</time></trkpt><trkpt lat="56.8380600" lon="53.1428579"><time>2024-11-09T12:01:36.663</time></trkpt><trkpt lat="56.8380220" lon="53.1429083"><time>2024-11-09T12:01:39.663</time></trkpt><trkpt lat="56.8380294" lon="53.1429154"><time>2024-11-09T12:01:46.487</time></trkpt><trkpt lat="56.8376893" lon="53.1334075"><time>2024-11-09T12:07:45.743</time></trkpt><trkpt lat="56.8376304" lon="53.1333639"><time>2024-11-09T12:07:46.620</time></trkpt><trkpt lat="56.8375820" lon="53.1329898"><time>2024-11-09T12:07:47.617</time></trkpt><trkpt lat="56.8375405" lon="53.1328733"><time>2024-11-09T12:07:48.633</time></trkpt><trkpt lat="56.8376206" lon="53.1332068"><time>2024-11-09T12:07:48.953</time></trkpt><trkpt lat="56.8375816" lon="53.1330986"><time>2024-11-09T12:07:51.653</time></trkpt><trkpt lat="56.8375492" lon="53.1330365"><time>2024-11-09T12:07:53.660</time></trkpt><trkpt lat="56.8375343" lon="53.1329432"><time>2024-11-09T12:08:04.663</time></trkpt><trkpt lat="56.8375140" lon="53.1329509"><time>2024-11-09T12:08:10.847</time></trkpt><trkpt lat="56.8353686" lon="53.1274755"><time>2024-11-09T12:11:01.653</time></trkpt><trkpt lat="56.8354143" lon="53.1272228"><time>2024-11-09T12:11:02.623</time></trkpt><trkpt lat="56.8354369" lon="53.1273171"><time>2024-11-09T12:11:03.660</time></trkpt><trkpt lat="56.8355189" lon="53.1272566"><time>2024-11-09T12:11:05.660</time></trkpt><trkpt lat="56.8353150" lon="53.1267939"><time>2024-11-09T12:11:08.663</time></trkpt></trkseg></trk></gpx>